sensor_id;sensor_type;location;lat;lon;timestamp;P1;durP1;ratioP1;P2;durP2;ratioP2
74100;SDS011;62462;52.530;21.682;2022-11-03T00:01:53;22.95;;;9.25;;
74100;SDS011;62462;52.530;21.682;2022-11-03T00:04:20;19.08;;;9.50;;
74100;SDS011;62462;52.530;21.682;2022-11-03T00:06:48;21.75;;;9.80;;
74100;SDS011;62462;52.530;21.682;2022-11-03T00:09:15;19.35;;;9.30;;
74100;SDS011;62462;52.530;21.682;2022-11-03T00:11:43;23.55;;;10.43;;
74100;SDS011;62462;52.530;21.682;2022-11-03T00:14:10;22.85;;;9.82;;
74100;SDS011;62462;52.530;21.682;2022-11-03T00:16:37;19.00;;;9.90;;
74100;SDS011;62462;52.530;21.682;2022-11-03T00:19:04;18.33;;;8.82;;
74100;SDS011;62462;52.530;21.682;2022-11-03T00:21:31;19.90;;;8.68;;
74100;SDS011;62462;52.530;21.682;2022-11-03T00:23:57;19.75;;;9.10;;
74100;SDS011;62462;52.530;21.682;2022-11-03T00:26:24;18.63;;;8.43;;
74100;SDS011;62462;52.530;21.682;2022-11-03T00:28:52;17.98;;;8.90;;
74100;SDS011;62462;52.530;21.682;2022-11-03T00:31:25;17.75;;;9.38;;
74100;SDS011;62462;52.530;21.682;2022-11-03T00:33:55;17.38;;;8.63;;
74100;SDS011;62462;52.530;21.682;2022-11-03T00:36:22;16.42;;;8.80;;
74100;SDS011;62462;52.530;21.682;2022-11-03T00:38:50;23.40;;;8.98;;
74100;SDS011;62462;52.530;21.682;2022-11-03T00:41:16;21.10;;;9.18;;
74100;SDS011;62462;52.530;21.682;2022-11-03T00:43:44;20.42;;;9.23;;
74100;SDS011;62462;52.530;21.682;2022-11-03T00:46:10;17.20;;;8.93;;
74100;SDS011;62462;52.530;21.682;2022-11-03T00:48:36;15.35;;;9.00;;
74100;SDS011;62462;52.530;21.682;2022-11-03T00:51:09;15.48;;;8.32;;
74100;SDS011;62462;52.530;21.682;2022-11-03T00:53:39;17.20;;;9.13;;
74100;SDS011;62462;52.530;21.682;2022-11-03T00:56:26;20.30;;;8.98;;
74100;SDS011;62462;52.530;21.682;2022-11-03T00:58:52;19.73;;;8.25;;
74100;SDS011;62462;52.530;21.682;2022-11-03T01:01:19;21.17;;;9.07;;
74100;SDS011;62462;52.530;21.682;2022-11-03T01:03:48;22.15;;;9.95;;
74100;SDS011;62462;52.530;21.682;2022-11-03T01:06:35;18.58;;;8.52;;
74100;SDS011;62462;52.530;21.682;2022-11-03T01:09:24;21.83;;;9.40;;
74100;SDS011;62462;52.530;21.682;2022-11-03T01:14:23;20.92;;;8.13;;
74100;SDS011;62462;52.530;21.682;2022-11-03T01:16:50;18.95;;;8.50;;
74100;SDS011;62462;52.530;21.682;2022-11-03T01:19:16;18.38;;;8.77;;
74100;SDS011;62462;52.530;21.682;2022-11-03T01:21:42;18.05;;;8.07;;
74100;SDS011;62462;52.530;21.682;2022-11-03T01:24:08;22.08;;;9.45;;
74100;SDS011;62462;52.530;21.682;2022-11-03T01:26:34;18.55;;;8.77;;
74100;SDS011;62462;52.530;21.682;2022-11-03T01:28:59;20.25;;;8.40;;
74100;SDS011;62462;52.530;21.682;2022-11-03T01:31:26;23.70;;;7.93;;
74100;SDS011;62462;52.530;21.682;2022-11-03T01:33:53;18.35;;;7.80;;
74100;SDS011;62462;52.530;21.682;2022-11-03T01:36:20;17.73;;;8.48;;
74100;SDS011;62462;52.530;21.682;2022-11-03T01:38:46;17.42;;;7.82;;
74100;SDS011;62462;52.530;21.682;2022-11-03T01:41:15;15.70;;;7.93;;
74100;SDS011;62462;52.530;21.682;2022-11-03T01:43:42;16.27;;;7.97;;
74100;SDS011;62462;52.530;21.682;2022-11-03T01:46:14;20.13;;;8.40;;
74100;SDS011;62462;52.530;21.682;2022-11-03T01:48:49;15.23;;;8.18;;
74100;SDS011;62462;52.530;21.682;2022-11-03T01:51:25;16.02;;;7.95;;
74100;SDS011;62462;52.530;21.682;2022-11-03T01:53:53;16.92;;;7.40;;
74100;SDS011;62462;52.530;21.682;2022-11-03T01:56:23;20.67;;;8.30;;
74100;SDS011;62462;52.530;21.682;2022-11-03T01:58:50;18.52;;;7.95;;
74100;SDS011;62462;52.530;21.682;2022-11-03T02:01:18;16.90;;;7.55;;
74100;SDS011;62462;52.530;21.682;2022-11-03T02:03:52;18.00;;;8.15;;
74100;SDS011;62462;52.530;21.682;2022-11-03T02:06:22;19.52;;;7.47;;
74100;SDS011;62462;52.530;21.682;2022-11-03T02:08:53;18.08;;;7.47;;
74100;SDS011;62462;52.530;21.682;2022-11-03T02:11:24;14.32;;;7.10;;
74100;SDS011;62462;52.530;21.682;2022-11-03T02:14:12;16.60;;;7.03;;
74100;SDS011;62462;52.530;21.682;2022-11-03T02:16:40;15.82;;;6.95;;
74100;SDS011;62462;52.530;21.682;2022-11-03T02:19:26;16.70;;;7.47;;
74100;SDS011;62462;52.530;21.682;2022-11-03T02:27:53;13.75;;;6.15;;
74100;SDS011;62462;52.530;21.682;2022-11-03T02:30:19;11.77;;;6.45;;
74100;SDS011;62462;52.530;21.682;2022-11-03T02:32:48;17.88;;;6.25;;
74100;SDS011;62462;52.530;21.682;2022-11-03T02:35:23;14.88;;;6.32;;
74100;SDS011;62462;52.530;21.682;2022-11-03T02:37:54;13.30;;;5.82;;
74100;SDS011;62462;52.530;21.682;2022-11-03T02:40:30;11.80;;;6.32;;
74100;SDS011;62462;52.530;21.682;2022-11-03T02:42:58;15.20;;;6.32;;
74100;SDS011;62462;52.530;21.682;2022-11-03T02:45:26;15.00;;;5.80;;
74100;SDS011;62462;52.530;21.682;2022-11-03T02:47:53;12.50;;;6.07;;
74100;SDS011;62462;52.530;21.682;2022-11-03T02:50:30;13.35;;;5.88;;
74100;SDS011;62462;52.530;21.682;2022-11-03T02:52:56;19.80;;;6.72;;
74100;SDS011;62462;52.530;21.682;2022-11-03T02:58:40;11.65;;;5.82;;
74100;SDS011;62462;52.530;21.682;2022-11-03T03:03:53;14.80;;;5.88;;
74100;SDS011;62462;52.530;21.682;2022-11-03T03:08:53;10.90;;;5.55;;
74100;SDS011;62462;52.530;21.682;2022-11-03T03:11:23;15.30;;;5.75;;
74100;SDS011;62462;52.530;21.682;2022-11-03T03:14:05;13.35;;;6.00;;
74100;SDS011;62462;52.530;21.682;2022-11-03T03:22:13;13.35;;;5.45;;
74100;SDS011;62462;52.530;21.682;2022-11-03T03:27:12;15.68;;;5.28;;
74100;SDS011;62462;52.530;21.682;2022-11-03T03:29:40;11.73;;;5.78;;
74100;SDS011;62462;52.530;21.682;2022-11-03T03:32:29;12.27;;;6.10;;
74100;SDS011;62462;52.530;21.682;2022-11-03T03:34:58;13.02;;;5.45;;
74100;SDS011;62462;52.530;21.682;2022-11-03T03:37:26;14.95;;;5.82;;
74100;SDS011;62462;52.530;21.682;2022-11-03T03:39:54;11.45;;;5.28;;
74100;SDS011;62462;52.530;21.682;2022-11-03T03:42:24;12.27;;;5.45;;
74100;SDS011;62462;52.530;21.682;2022-11-03T03:44:52;13.10;;;5.32;;
74100;SDS011;62462;52.530;21.682;2022-11-03T03:47:26;9.95;;;5.60;;
74100;SDS011;62462;52.530;21.682;2022-11-03T03:52:19;15.80;;;5.82;;
74100;SDS011;62462;52.530;21.682;2022-11-03T03:54:45;14.07;;;5.50;;
74100;SDS011;62462;52.530;21.682;2022-11-03T03:57:12;11.93;;;5.47;;
74100;SDS011;62462;52.530;21.682;2022-11-03T03:59:40;12.88;;;5.43;;
74100;SDS011;62462;52.530;21.682;2022-11-03T04:02:07;11.40;;;5.63;;
74100;SDS011;62462;52.530;21.682;2022-11-03T04:04:33;11.18;;;5.40;;
74100;SDS011;62462;52.530;21.682;2022-11-03T04:06:59;10.30;;;5.20;;
74100;SDS011;62462;52.530;21.682;2022-11-03T04:09:43;12.35;;;5.40;;
74100;SDS011;62462;52.530;21.682;2022-11-03T04:12:09;15.10;;;5.97;;
74100;SDS011;62462;52.530;21.682;2022-11-03T04:14:57;15.70;;;5.68;;
74100;SDS011;62462;52.530;21.682;2022-11-03T04:17:42;9.80;;;5.15;;
74100;SDS011;62462;52.530;21.682;2022-11-03T04:20:29;13.77;;;5.40;;
74100;SDS011;62462;52.530;21.682;2022-11-03T04:23:13;14.15;;;5.57;;
74100;SDS011;62462;52.530;21.682;2022-11-03T04:25:40;10.85;;;5.60;;
74100;SDS011;62462;52.530;21.682;2022-11-03T04:28:10;15.98;;;6.50;;
74100;SDS011;62462;52.530;21.682;2022-11-03T04:30:38;12.45;;;5.45;;
74100;SDS011;62462;52.530;21.682;2022-11-03T04:33:17;13.75;;;5.30;;
74100;SDS011;62462;52.530;21.682;2022-11-03T04:35:45;11.15;;;5.57;;
74100;SDS011;62462;52.530;21.682;2022-11-03T04:40:40;13.10;;;5.28;;
74100;SDS011;62462;52.530;21.682;2022-11-03T04:43:12;14.10;;;5.78;;
74100;SDS011;62462;52.530;21.682;2022-11-03T04:45:39;12.45;;;6.10;;
74100;SDS011;62462;52.530;21.682;2022-11-03T04:48:22;10.02;;;5.60;;
74100;SDS011;62462;52.530;21.682;2022-11-03T04:50:51;14.90;;;5.75;;
74100;SDS011;62462;52.530;21.682;2022-11-03T04:53:19;10.80;;;5.90;;
74100;SDS011;62462;52.530;21.682;2022-11-03T04:55:46;11.77;;;5.45;;
74100;SDS011;62462;52.530;21.682;2022-11-03T04:58:23;11.75;;;6.03;;
74100;SDS011;62462;52.530;21.682;2022-11-03T05:00:55;11.90;;;5.60;;
74100;SDS011;62462;52.530;21.682;2022-11-03T05:03:24;12.70;;;6.68;;
74100;SDS011;62462;52.530;21.682;2022-11-03T05:06:00;12.70;;;5.30;;
74100;SDS011;62462;52.530;21.682;2022-11-03T05:08:38;12.95;;;5.38;;
74100;SDS011;62462;52.530;21.682;2022-11-03T05:11:46;10.52;;;5.25;;
74100;SDS011;62462;52.530;21.682;2022-11-03T05:13:59;11.00;;;5.95;;
74100;SDS011;62462;52.530;21.682;2022-11-03T05:16:27;17.35;;;5.75;;
74100;SDS011;62462;52.530;21.682;2022-11-03T05:18:53;12.65;;;5.55;;
74100;SDS011;62462;52.530;21.682;2022-11-03T05:21:20;9.93;;;5.43;;
74100;SDS011;62462;52.530;21.682;2022-11-03T05:23:53;12.48;;;6.00;;
74100;SDS011;62462;52.530;21.682;2022-11-03T05:29:07;12.57;;;6.53;;
74100;SDS011;62462;52.530;21.682;2022-11-03T05:31:41;11.55;;;6.07;;
74100;SDS011;62462;52.530;21.682;2022-11-03T05:34:41;12.20;;;5.72;;
74100;SDS011;62462;52.530;21.682;2022-11-03T05:39:49;10.57;;;5.38;;
74100;SDS011;62462;52.530;21.682;2022-11-03T05:44:54;13.32;;;5.82;;
74100;SDS011;62462;52.530;21.682;2022-11-03T05:47:21;11.15;;;5.43;;
74100;SDS011;62462;52.530;21.682;2022-11-03T05:49:48;10.98;;;6.78;;
74100;SDS011;62462;52.530;21.682;2022-11-03T05:52:18;13.70;;;5.63;;
74100;SDS011;62462;52.530;21.682;2022-11-03T05:54:49;12.35;;;5.80;;
74100;SDS011;62462;52.530;21.682;2022-11-03T05:57:16;12.35;;;5.70;;
74100;SDS011;62462;52.530;21.682;2022-11-03T05:59:46;12.73;;;5.40;;
74100;SDS011;62462;52.530;21.682;2022-11-03T06:04:59;10.82;;;6.13;;
74100;SDS011;62462;52.530;21.682;2022-11-03T06:07:25;11.32;;;5.95;;
74100;SDS011;62462;52.530;21.682;2022-11-03T06:09:53;12.60;;;5.93;;
74100;SDS011;62462;52.530;21.682;2022-11-03T06:12:19;13.18;;;5.80;;
74100;SDS011;62462;52.530;21.682;2022-11-03T06:14:48;13.45;;;6.22;;
74100;SDS011;62462;52.530;21.682;2022-11-03T06:19:55;10.68;;;5.28;;
74100;SDS011;62462;52.530;21.682;2022-11-03T06:24:59;11.70;;;5.90;;
74100;SDS011;62462;52.530;21.682;2022-11-03T06:27:36;13.60;;;5.72;;
74100;SDS011;62462;52.530;21.682;2022-11-03T06:30:11;14.02;;;6.50;;
74100;SDS011;62462;52.530;21.682;2022-11-03T06:32:56;9.70;;;5.32;;
74100;SDS011;62462;52.530;21.682;2022-11-03T06:35:24;12.90;;;5.78;;
74100;SDS011;62462;52.530;21.682;2022-11-03T06:37:50;11.07;;;5.30;;
74100;SDS011;62462;52.530;21.682;2022-11-03T06:42:41;14.07;;;5.20;;
74100;SDS011;62462;52.530;21.682;2022-11-03T06:45:17;10.38;;;5.28;;
74100;SDS011;62462;52.530;21.682;2022-11-03T06:47:45;9.95;;;5.68;;
74100;SDS011;62462;52.530;21.682;2022-11-03T06:52:48;11.27;;;5.30;;
74100;SDS011;62462;52.530;21.682;2022-11-03T06:55:21;15.13;;;5.38;;
74100;SDS011;62462;52.530;21.682;2022-11-03T06:57:58;11.50;;;5.10;;
74100;SDS011;62462;52.530;21.682;2022-11-03T07:00:29;11.05;;;5.10;;
74100;SDS011;62462;52.530;21.682;2022-11-03T07:05:45;9.50;;;4.78;;
74100;SDS011;62462;52.530;21.682;2022-11-03T07:10:39;15.35;;;6.15;;
74100;SDS011;62462;52.530;21.682;2022-11-03T07:13:09;10.18;;;5.53;;
74100;SDS011;62462;52.530;21.682;2022-11-03T07:15:39;8.45;;;4.55;;
74100;SDS011;62462;52.530;21.682;2022-11-03T07:18:14;9.93;;;5.53;;
74100;SDS011;62462;52.530;21.682;2022-11-03T07:20:55;16.35;;;6.45;;
74100;SDS011;62462;52.530;21.682;2022-11-03T07:23:28;32.78;;;16.88;;
74100;SDS011;62462;52.530;21.682;2022-11-03T07:26:00;16.58;;;8.23;;
74100;SDS011;62462;52.530;21.682;2022-11-03T07:28:35;15.77;;;6.85;;
74100;SDS011;62462;52.530;21.682;2022-11-03T07:31:36;10.18;;;5.60;;
74100;SDS011;62462;52.530;21.682;2022-11-03T07:33:55;10.48;;;4.80;;
74100;SDS011;62462;52.530;21.682;2022-11-03T07:36:23;11.00;;;5.05;;
74100;SDS011;62462;52.530;21.682;2022-11-03T07:38:53;11.70;;;5.80;;
74100;SDS011;62462;52.530;21.682;2022-11-03T07:41:23;9.18;;;5.35;;
74100;SDS011;62462;52.530;21.682;2022-11-03T07:43:53;11.60;;;5.22;;
74100;SDS011;62462;52.530;21.682;2022-11-03T07:46:23;10.55;;;5.07;;
74100;SDS011;62462;52.530;21.682;2022-11-03T07:48:52;11.05;;;4.90;;
74100;SDS011;62462;52.530;21.682;2022-11-03T07:56:47;13.60;;;5.47;;
74100;SDS011;62462;52.530;21.682;2022-11-03T07:59:34;10.77;;;5.18;;
74100;SDS011;62462;52.530;21.682;2022-11-03T08:04:49;10.77;;;5.93;;
74100;SDS011;62462;52.530;21.682;2022-11-03T08:07:15;11.45;;;4.82;;
74100;SDS011;62462;52.530;21.682;2022-11-03T08:09:41;12.43;;;6.72;;
74100;SDS011;62462;52.530;21.682;2022-11-03T08:12:07;11.57;;;7.20;;
74100;SDS011;62462;52.530;21.682;2022-11-03T08:14:32;11.18;;;5.57;;
74100;SDS011;62462;52.530;21.682;2022-11-03T08:16:59;8.50;;;4.40;;
74100;SDS011;62462;52.530;21.682;2022-11-03T08:19:25;8.02;;;4.65;;
74100;SDS011;62462;52.530;21.682;2022-11-03T08:21:50;14.00;;;5.00;;
74100;SDS011;62462;52.530;21.682;2022-11-03T08:24:16;11.85;;;4.40;;
74100;SDS011;62462;52.530;21.682;2022-11-03T08:26:42;10.45;;;4.40;;
74100;SDS011;62462;52.530;21.682;2022-11-03T08:29:07;8.98;;;4.45;;
74100;SDS011;62462;52.530;21.682;2022-11-03T08:31:33;10.95;;;4.88;;
74100;SDS011;62462;52.530;21.682;2022-11-03T08:33:59;11.77;;;4.90;;
74100;SDS011;62462;52.530;21.682;2022-11-03T08:36:25;12.52;;;4.25;;
74100;SDS011;62462;52.530;21.682;2022-11-03T08:38:51;12.68;;;4.32;;
74100;SDS011;62462;52.530;21.682;2022-11-03T08:41:16;8.13;;;4.00;;
74100;SDS011;62462;52.530;21.682;2022-11-03T08:43:42;10.77;;;4.00;;
74100;SDS011;62462;52.530;21.682;2022-11-03T08:46:09;7.07;;;3.53;;
74100;SDS011;62462;52.530;21.682;2022-11-03T08:48:35;9.18;;;3.75;;
74100;SDS011;62462;52.530;21.682;2022-11-03T08:51:01;8.48;;;5.32;;
74100;SDS011;62462;52.530;21.682;2022-11-03T08:53:26;8.80;;;4.03;;
74100;SDS011;62462;52.530;21.682;2022-11-03T08:55:52;12.75;;;5.57;;
74100;SDS011;62462;52.530;21.682;2022-11-03T08:58:19;10.85;;;5.88;;
74100;SDS011;62462;52.530;21.682;2022-11-03T09:00:45;12.43;;;4.90;;
74100;SDS011;62462;52.530;21.682;2022-11-03T09:03:12;11.10;;;4.10;;
74100;SDS011;62462;52.530;21.682;2022-11-03T09:05:38;9.82;;;3.97;;
74100;SDS011;62462;52.530;21.682;2022-11-03T09:08:04;14.85;;;3.80;;
74100;SDS011;62462;52.530;21.682;2022-11-03T09:10:30;12.55;;;3.60;;
74100;SDS011;62462;52.530;21.682;2022-11-03T09:12:55;10.90;;;3.30;;
74100;SDS011;62462;52.530;21.682;2022-11-03T09:15:21;8.40;;;3.60;;
74100;SDS011;62462;52.530;21.682;2022-11-03T09:17:47;10.15;;;3.83;;
74100;SDS011;62462;52.530;21.682;2022-11-03T09:20:14;11.75;;;3.80;;
74100;SDS011;62462;52.530;21.682;2022-11-03T09:22:41;9.57;;;3.35;;
74100;SDS011;62462;52.530;21.682;2022-11-03T09:25:07;8.73;;;3.40;;
74100;SDS011;62462;52.530;21.682;2022-11-03T09:27:33;13.40;;;3.80;;
74100;SDS011;62462;52.530;21.682;2022-11-03T09:29:59;8.55;;;3.20;;
74100;SDS011;62462;52.530;21.682;2022-11-03T09:32:24;9.15;;;4.53;;
74100;SDS011;62462;52.530;21.682;2022-11-03T09:34:50;11.32;;;4.13;;
74100;SDS011;62462;52.530;21.682;2022-11-03T09:37:17;11.70;;;4.07;;
74100;SDS011;62462;52.530;21.682;2022-11-03T09:39:43;9.63;;;2.95;;
74100;SDS011;62462;52.530;21.682;2022-11-03T09:42:09;7.32;;;2.78;;
74100;SDS011;62462;52.530;21.682;2022-11-03T09:44:36;17.80;;;7.70;;
74100;SDS011;62462;52.530;21.682;2022-11-03T09:47:03;15.65;;;6.80;;
74100;SDS011;62462;52.530;21.682;2022-11-03T09:49:30;10.15;;;5.13;;
74100;SDS011;62462;52.530;21.682;2022-11-03T09:51:58;10.43;;;4.22;;
74100;SDS011;62462;52.530;21.682;2022-11-03T09:54:27;16.98;;;7.22;;
74100;SDS011;62462;52.530;21.682;2022-11-03T09:56:57;11.90;;;4.53;;
74100;SDS011;62462;52.530;21.682;2022-11-03T09:59:33;11.63;;;4.20;;
74100;SDS011;62462;52.530;21.682;2022-11-03T10:02:00;7.47;;;3.20;;
74100;SDS011;62462;52.530;21.682;2022-11-03T10:04:26;8.80;;;2.70;;
74100;SDS011;62462;52.530;21.682;2022-11-03T10:06:54;10.15;;;3.30;;
74100;SDS011;62462;52.530;21.682;2022-11-03T10:09:20;9.75;;;3.75;;
74100;SDS011;62462;52.530;21.682;2022-11-03T10:11:47;11.20;;;5.38;;
74100;SDS011;62462;52.530;21.682;2022-11-03T10:14:15;6.82;;;2.70;;
74100;SDS011;62462;52.530;21.682;2022-11-03T10:16:42;11.18;;;5.25;;
74100;SDS011;62462;52.530;21.682;2022-11-03T10:19:15;9.73;;;4.97;;
74100;SDS011;62462;52.530;21.682;2022-11-03T10:21:42;11.20;;;5.22;;
74100;SDS011;62462;52.530;21.682;2022-11-03T10:24:12;8.57;;;2.55;;
74100;SDS011;62462;52.530;21.682;2022-11-03T10:26:56;7.95;;;2.28;;
74100;SDS011;62462;52.530;21.682;2022-11-03T10:29:23;7.22;;;1.73;;
74100;SDS011;62462;52.530;21.682;2022-11-03T10:31:50;7.32;;;1.95;;
74100;SDS011;62462;52.530;21.682;2022-11-03T10:34:33;8.07;;;2.92;;
74100;SDS011;62462;52.530;21.682;2022-11-03T10:39:47;9.88;;;4.38;;
74100;SDS011;62462;52.530;21.682;2022-11-03T10:42:25;8.20;;;3.20;;
74100;SDS011;62462;52.530;21.682;2022-11-03T10:45:08;7.72;;;3.03;;
74100;SDS011;62462;52.530;21.682;2022-11-03T10:47:44;8.45;;;3.20;;
74100;SDS011;62462;52.530;21.682;2022-11-03T10:50:29;6.22;;;1.50;;
74100;SDS011;62462;52.530;21.682;2022-11-03T10:52:55;5.68;;;1.70;;
74100;SDS011;62462;52.530;21.682;2022-11-03T10:55:21;7.43;;;2.03;;
74100;SDS011;62462;52.530;21.682;2022-11-03T10:57:50;7.10;;;1.67;;
74100;SDS011;62462;52.530;21.682;2022-11-03T11:00:19;7.00;;;2.72;;
74100;SDS011;62462;52.530;21.682;2022-11-03T11:02:45;9.18;;;3.30;;
74100;SDS011;62462;52.530;21.682;2022-11-03T11:07:39;5.30;;;1.98;;
74100;SDS011;62462;52.530;21.682;2022-11-03T11:10:15;7.30;;;2.17;;
74100;SDS011;62462;52.530;21.682;2022-11-03T11:13:02;11.93;;;4.57;;
74100;SDS011;62462;52.530;21.682;2022-11-03T11:15:50;8.68;;;1.92;;
74100;SDS011;62462;52.530;21.682;2022-11-03T11:20:56;6.03;;;1.70;;
74100;SDS011;62462;52.530;21.682;2022-11-03T11:28:44;5.07;;;1.90;;
74100;SDS011;62462;52.530;21.682;2022-11-03T11:31:31;15.70;;;5.40;;
74100;SDS011;62462;52.530;21.682;2022-11-03T11:36:37;5.93;;;1.50;;
74100;SDS011;62462;52.530;21.682;2022-11-03T11:52:31;3.67;;;1.40;;
74100;SDS011;62462;52.530;21.682;2022-11-03T11:54:58;9.43;;;1.80;;
74100;SDS011;62462;52.530;21.682;2022-11-03T11:57:24;7.13;;;1.48;;
74100;SDS011;62462;52.530;21.682;2022-11-03T11:59:53;7.47;;;1.63;;
74100;SDS011;62462;52.530;21.682;2022-11-03T12:02:21;8.35;;;1.77;;
74100;SDS011;62462;52.530;21.682;2022-11-03T12:04:52;8.32;;;1.45;;
74100;SDS011;62462;52.530;21.682;2022-11-03T12:07:32;10.95;;;2.85;;
74100;SDS011;62462;52.530;21.682;2022-11-03T12:10:11;6.45;;;1.50;;
74100;SDS011;62462;52.530;21.682;2022-11-03T12:12:40;6.85;;;1.45;;
74100;SDS011;62462;52.530;21.682;2022-11-03T12:15:46;7.32;;;1.52;;
74100;SDS011;62462;52.530;21.682;2022-11-03T12:21:05;6.05;;;1.42;;
74100;SDS011;62462;52.530;21.682;2022-11-03T12:23:45;6.53;;;1.30;;
74100;SDS011;62462;52.530;21.682;2022-11-03T12:26:18;7.95;;;1.23;;
74100;SDS011;62462;52.530;21.682;2022-11-03T12:29:06;4.45;;;1.52;;
74100;SDS011;62462;52.530;21.682;2022-11-03T12:31:32;9.27;;;1.88;;
74100;SDS011;62462;52.530;21.682;2022-11-03T12:33:57;4.85;;;1.92;;
74100;SDS011;62462;52.530;21.682;2022-11-03T12:36:24;8.45;;;2.80;;
74100;SDS011;62462;52.530;21.682;2022-11-03T12:38:50;10.07;;;4.60;;
74100;SDS011;62462;52.530;21.682;2022-11-03T12:41:17;6.22;;;1.98;;
74100;SDS011;62462;52.530;21.682;2022-11-03T12:43:46;7.20;;;1.73;;
74100;SDS011;62462;52.530;21.682;2022-11-03T12:46:13;8.70;;;3.85;;
74100;SDS011;62462;52.530;21.682;2022-11-03T12:48:39;13.70;;;5.15;;
74100;SDS011;62462;52.530;21.682;2022-11-03T12:51:09;11.77;;;4.68;;
74100;SDS011;62462;52.530;21.682;2022-11-03T12:53:36;9.98;;;3.53;;
74100;SDS011;62462;52.530;21.682;2022-11-03T12:56:02;13.65;;;5.50;;
74100;SDS011;62462;52.530;21.682;2022-11-03T12:58:28;9.75;;;4.07;;
74100;SDS011;62462;52.530;21.682;2022-11-03T13:00:53;10.77;;;2.80;;
74100;SDS011;62462;52.530;21.682;2022-11-03T13:03:19;10.02;;;1.80;;
74100;SDS011;62462;52.530;21.682;2022-11-03T13:05:45;6.25;;;1.63;;
74100;SDS011;62462;52.530;21.682;2022-11-03T13:08:10;5.38;;;1.52;;
74100;SDS011;62462;52.530;21.682;2022-11-03T13:10:36;5.20;;;1.30;;
74100;SDS011;62462;52.530;21.682;2022-11-03T13:13:02;5.50;;;2.08;;
74100;SDS011;62462;52.530;21.682;2022-11-03T13:15:27;9.85;;;4.00;;
74100;SDS011;62462;52.530;21.682;2022-11-03T13:17:53;8.35;;;2.00;;
74100;SDS011;62462;52.530;21.682;2022-11-03T13:20:20;5.25;;;1.52;;
74100;SDS011;62462;52.530;21.682;2022-11-03T13:22:46;6.82;;;2.03;;
74100;SDS011;62462;52.530;21.682;2022-11-03T13:25:12;6.65;;;2.50;;
74100;SDS011;62462;52.530;21.682;2022-11-03T13:27:37;5.63;;;2.95;;
74100;SDS011;62462;52.530;21.682;2022-11-03T13:30:04;15.32;;;10.05;;
74100;SDS011;62462;52.530;21.682;2022-11-03T13:32:32;10.05;;;3.70;;
74100;SDS011;62462;52.530;21.682;2022-11-03T13:34:58;7.63;;;2.42;;
74100;SDS011;62462;52.530;21.682;2022-11-03T13:37:24;6.78;;;1.80;;
74100;SDS011;62462;52.530;21.682;2022-11-03T13:39:50;6.38;;;2.30;;
74100;SDS011;62462;52.530;21.682;2022-11-03T13:42:15;11.32;;;3.63;;
74100;SDS011;62462;52.530;21.682;2022-11-03T13:44:41;34.63;;;14.60;;
74100;SDS011;62462;52.530;21.682;2022-11-03T13:47:07;83.60;;;38.35;;
74100;SDS011;62462;52.530;21.682;2022-11-03T13:49:33;85.45;;;40.47;;
74100;SDS011;62462;52.530;21.682;2022-11-03T13:51:59;41.25;;;19.83;;
74100;SDS011;62462;52.530;21.682;2022-11-03T13:54:25;35.63;;;14.73;;
74100;SDS011;62462;52.530;21.682;2022-11-03T13:56:51;29.10;;;12.82;;
74100;SDS011;62462;52.530;21.682;2022-11-03T13:59:17;16.90;;;7.45;;
74100;SDS011;62462;52.530;21.682;2022-11-03T14:01:43;13.82;;;4.00;;
74100;SDS011;62462;52.530;21.682;2022-11-03T14:04:08;8.23;;;2.33;;
74100;SDS011;62462;52.530;21.682;2022-11-03T14:06:34;6.72;;;2.15;;
74100;SDS011;62462;52.530;21.682;2022-11-03T14:09:00;4.63;;;1.75;;
74100;SDS011;62462;52.530;21.682;2022-11-03T14:11:25;6.55;;;2.28;;
74100;SDS011;62462;52.530;21.682;2022-11-03T14:14:10;6.38;;;2.50;;
74100;SDS011;62462;52.530;21.682;2022-11-03T14:16:37;12.80;;;3.50;;
74100;SDS011;62462;52.530;21.682;2022-11-03T14:19:02;10.95;;;3.13;;
74100;SDS011;62462;52.530;21.682;2022-11-03T14:21:28;6.95;;;2.80;;
74100;SDS011;62462;52.530;21.682;2022-11-03T14:23:54;8.18;;;2.40;;
74100;SDS011;62462;52.530;21.682;2022-11-03T14:26:19;7.65;;;2.70;;
74100;SDS011;62462;52.530;21.682;2022-11-03T14:28:45;6.75;;;2.60;;
74100;SDS011;62462;52.530;21.682;2022-11-03T14:31:11;6.25;;;2.63;;
74100;SDS011;62462;52.530;21.682;2022-11-03T14:33:36;6.07;;;2.38;;
74100;SDS011;62462;52.530;21.682;2022-11-03T14:36:02;6.18;;;2.22;;
74100;SDS011;62462;52.530;21.682;2022-11-03T14:38:28;7.88;;;3.70;;
74100;SDS011;62462;52.530;21.682;2022-11-03T14:40:54;7.88;;;2.80;;
74100;SDS011;62462;52.530;21.682;2022-11-03T14:43:38;5.28;;;1.70;;
74100;SDS011;62462;52.530;21.682;2022-11-03T14:46:03;9.35;;;1.95;;
74100;SDS011;62462;52.530;21.682;2022-11-03T14:48:29;4.22;;;1.40;;
74100;SDS011;62462;52.530;21.682;2022-11-03T14:50:55;6.38;;;1.73;;
74100;SDS011;62462;52.530;21.682;2022-11-03T14:53:21;5.35;;;1.90;;
74100;SDS011;62462;52.530;21.682;2022-11-03T14:55:46;9.68;;;2.20;;
74100;SDS011;62462;52.530;21.682;2022-11-03T14:58:12;5.97;;;2.08;;
74100;SDS011;62462;52.530;21.682;2022-11-03T15:00:38;7.93;;;1.73;;
74100;SDS011;62462;52.530;21.682;2022-11-03T15:03:04;15.95;;;2.30;;
74100;SDS011;62462;52.530;21.682;2022-11-03T15:05:29;8.38;;;2.17;;
74100;SDS011;62462;52.530;21.682;2022-11-03T15:08:14;6.82;;;2.45;;
74100;SDS011;62462;52.530;21.682;2022-11-03T15:10:41;10.18;;;3.50;;
74100;SDS011;62462;52.530;21.682;2022-11-03T15:13:07;12.95;;;5.63;;
74100;SDS011;62462;52.530;21.682;2022-11-03T15:15:33;6.78;;;2.53;;
74100;SDS011;62462;52.530;21.682;2022-11-03T15:18:05;6.28;;;2.55;;
74100;SDS011;62462;52.530;21.682;2022-11-03T15:20:31;8.35;;;2.15;;
74100;SDS011;62462;52.530;21.682;2022-11-03T15:22:59;8.00;;;2.10;;
74100;SDS011;62462;52.530;21.682;2022-11-03T15:25:26;7.20;;;2.17;;
74100;SDS011;62462;52.530;21.682;2022-11-03T15:27:53;6.28;;;2.03;;
74100;SDS011;62462;52.530;21.682;2022-11-03T15:30:18;6.88;;;2.55;;
74100;SDS011;62462;52.530;21.682;2022-11-03T15:32:44;7.90;;;2.90;;
74100;SDS011;62462;52.530;21.682;2022-11-03T15:35:10;8.60;;;2.90;;
74100;SDS011;62462;52.530;21.682;2022-11-03T15:37:36;8.55;;;2.70;;
74100;SDS011;62462;52.530;21.682;2022-11-03T15:40:02;7.70;;;2.83;;
74100;SDS011;62462;52.530;21.682;2022-11-03T15:42:30;6.88;;;3.47;;
74100;SDS011;62462;52.530;21.682;2022-11-03T15:44:56;9.45;;;3.33;;
74100;SDS011;62462;52.530;21.682;2022-11-03T15:47:21;10.68;;;3.65;;
74100;SDS011;62462;52.530;21.682;2022-11-03T15:49:47;12.00;;;4.43;;
74100;SDS011;62462;52.530;21.682;2022-11-03T15:52:13;16.55;;;5.68;;
74100;SDS011;62462;52.530;21.682;2022-11-03T15:54:38;17.35;;;5.18;;
74100;SDS011;62462;52.530;21.682;2022-11-03T15:57:05;17.35;;;6.93;;
74100;SDS011;62462;52.530;21.682;2022-11-03T15:59:30;18.45;;;7.13;;
74100;SDS011;62462;52.530;21.682;2022-11-03T16:01:57;18.15;;;6.90;;
74100;SDS011;62462;52.530;21.682;2022-11-03T16:04:23;18.40;;;8.00;;
74100;SDS011;62462;52.530;21.682;2022-11-03T16:06:48;29.83;;;12.13;;
74100;SDS011;62462;52.530;21.682;2022-11-03T16:09:14;16.80;;;7.97;;
74100;SDS011;62462;52.530;21.682;2022-11-03T16:11:40;14.93;;;7.57;;
74100;SDS011;62462;52.530;21.682;2022-11-03T16:14:05;16.42;;;8.05;;
74100;SDS011;62462;52.530;21.682;2022-11-03T16:16:31;20.95;;;8.55;;